createdAt,value
2018-11-26T00:04:07.490Z,99618.33
2018-11-26T00:09:12.651Z,99619.12
2018-11-26T00:14:17.242Z,99619.87
2018-11-26T00:19:22.030Z,99613.06
2018-11-26T00:24:26.574Z,99605.66
2018-11-26T00:29:36.070Z,99611.97
2018-11-26T00:34:40.576Z,99614.88
2018-11-26T00:39:58.396Z,99616.48
2018-11-26T00:45:03.309Z,99615.94
2018-11-26T00:50:08.934Z,99618.33
2018-11-26T00:55:13.372Z,99619.89
2018-11-26T01:00:18.883Z,99612.25
2018-11-26T01:05:31.946Z,99612.79
2018-11-26T01:10:36.808Z,99613.06
2018-11-26T01:15:41.259Z,99606.98
2018-11-26T01:20:46.355Z,99604.87
2018-11-26T01:25:50.845Z,99597.25
2018-11-26T01:30:55.181Z,99595.66
2018-11-26T01:35:59.898Z,99599.60
2018-11-26T01:41:04.525Z,99599.88
2018-11-26T01:46:08.718Z,99595.67
2018-11-26T01:51:12.921Z,99590.11
2018-11-26T01:56:17.698Z,99588.80
2018-11-26T02:01:21.903Z,99580.35
2018-11-26T02:06:26.233Z,99578.80
2018-11-26T02:11:30.590Z,99583.53
2018-11-26T02:16:35.738Z,99584.86
2018-11-26T02:21:40.367Z,99583.80
2018-11-26T02:26:45.492Z,99591.18
2018-11-26T02:31:49.836Z,99582.78
2018-11-26T02:36:54.634Z,99576.47
2018-11-26T02:41:59.042Z,99577.78
2018-11-26T02:47:03.676Z,99574.06
2018-11-26T02:52:07.943Z,99590.93
2018-11-26T02:57:12.243Z,99590.42
2018-11-26T03:02:16.812Z,99581.98
2018-11-26T03:07:34.565Z,99576.20
2018-11-26T03:12:39.190Z,99583.57
2018-11-26T03:17:44.232Z,99574.35
2018-11-26T03:22:48.649Z,99577.80
2018-11-26T03:27:53.928Z,99573.03
2018-11-26T03:32:58.265Z,99592.02
2018-11-26T03:38:10.464Z,99597.56
2018-11-26T03:43:14.626Z,99595.97
2018-11-26T03:48:18.950Z,99597.29
2018-11-26T03:53:23.169Z,99594.92
2018-11-26T03:58:27.769Z,99598.06
2018-11-26T04:03:32.190Z,99613.09
2018-11-26T04:08:37.265Z,99614.41
2018-11-26T04:13:42.782Z,99614.67
2018-11-26T04:18:47.696Z,99610.72
2018-11-26T04:23:52.772Z,99610.18
2018-11-26T04:28:57.118Z,99612.81
2018-11-26T04:34:01.976Z,99607.27
2018-11-26T04:39:08.311Z,99607.27
2018-11-26T04:44:12.706Z,99604.91
2018-11-26T04:49:17.110Z,99611.19
2018-11-26T04:54:21.755Z,99615.13
2018-11-26T04:59:26.127Z,99619.89
2018-11-26T05:04:30.466Z,99624.89
2018-11-26T05:09:35.388Z,99629.66
2018-11-26T05:14:39.950Z,99639.35
2018-11-26T05:19:44.418Z,99623.81
2018-11-26T05:24:49.404Z,99613.78
2018-11-26T05:29:53.914Z,99627.73
2018-11-26T05:34:58.248Z,99634.06
2018-11-26T05:40:03.354Z,99620.87
2018-11-26T05:45:11.063Z,99625.61
2018-11-26T05:50:16.961Z,99623.22
2018-11-26T05:55:21.512Z,99623.78
2018-11-26T06:00:31.343Z,99624.56
2018-11-26T06:05:36.975Z,99622.98
2018-11-26T06:10:42.058Z,99630.61
2018-11-26T06:15:46.779Z,99635.06
2018-11-26T06:20:52.171Z,99640.59
2018-11-26T06:25:58.475Z,99644.27
2018-11-26T06:31:02.922Z,99637.44
2018-11-26T06:36:07.801Z,99646.89
2018-11-26T06:41:12.209Z,99650.07
2018-11-26T06:46:16.758Z,99648.45
2018-11-26T06:51:23.711Z,99653.73
2018-11-26T06:56:28.425Z,99659.53
2018-11-26T07:01:33.399Z,99668.19
2018-11-26T07:06:37.785Z,99661.61
2018-11-26T07:11:42.060Z,99667.94
2018-11-26T07:16:46.531Z,99670.31
2018-11-26T07:21:51.132Z,99663.70
2018-11-26T07:26:55.465Z,99671.63
2018-11-26T07:32:00.036Z,99682.14
2018-11-26T07:37:04.434Z,99686.58
2018-11-26T07:42:09.568Z,99683.66
2018-11-26T07:47:32.545Z,99689.17
2018-11-26T07:52:38.465Z,99695.77
2018-11-26T07:57:43.215Z,99690.06
2018-11-26T08:02:48.696Z,99689.56
2018-11-26T08:07:58.260Z,99689.83
2018-11-26T08:13:02.527Z,99694.53
2018-11-26T08:18:06.936Z,99697.39
2018-11-26T08:23:11.237Z,99697.60
2018-11-26T08:28:15.495Z,99708.08
2018-11-26T08:33:20.409Z,99713.86
2018-11-26T08:38:28.815Z,99719.84
2018-11-26T08:43:35.679Z,99719.03
2018-11-26T08:48:45.499Z,99723.46
2018-11-26T08:53:50.245Z,99742.18
2018-11-26T08:58:54.581Z,99734.44
2018-11-26T09:04:03.525Z,99724.23
2018-11-26T09:09:10.441Z,99740.00
2018-11-26T09:14:14.801Z,99738.66
2018-11-26T09:19:20.129Z,99734.70
2018-11-26T09:24:24.549Z,99730.20
2018-11-26T09:29:29.343Z,99729.72
2018-11-26T09:34:33.841Z,99731.84
2018-11-26T09:39:38.375Z,99731.78
2018-11-26T09:44:43.952Z,99730.28
2018-11-26T09:49:48.344Z,99730.46
2018-11-26T09:54:53.085Z,99737.30
2018-11-26T09:59:57.460Z,99727.39
2018-11-26T10:05:02.172Z,99723.72
2018-11-26T10:10:08.602Z,99720.80
2018-11-26T10:15:20.605Z,99722.14
2018-11-26T10:20:25.143Z,99713.49
2018-11-26T10:25:29.783Z,99709.34
2018-11-26T10:30:34.236Z,99710.13
2018-11-26T10:35:38.977Z,99712.80
2018-11-26T10:40:45.059Z,99711.51
2018-11-26T10:45:49.409Z,99707.12
2018-11-26T10:50:54.155Z,99709.16
2018-11-26T10:55:59.039Z,99699.93
2018-11-26T11:01:07.473Z,99710.51
2018-11-26T11:06:11.911Z,99718.91
2018-11-26T11:11:23.217Z,99724.17
2018-11-26T11:16:21.198Z,99725.72
2018-11-26T11:21:25.635Z,99735.72
2018-11-26T11:26:30.185Z,99739.38
2018-11-26T11:31:35.038Z,99741.48
2018-11-26T11:36:39.593Z,99736.98
2018-11-26T11:41:44.960Z,99740.67
2018-11-26T11:46:49.468Z,99738.02
2018-11-26T11:51:53.978Z,99732.77
2018-11-26T11:57:03.353Z,99731.66
2018-11-26T12:02:09.289Z,99740.61
2018-11-26T12:07:13.896Z,99747.95
2018-11-26T12:12:18.120Z,99748.19
2018-11-26T12:17:23.292Z,99741.38
2018-11-26T12:22:27.837Z,99746.41
2018-11-26T12:27:32.274Z,99733.25
2018-11-26T12:32:36.587Z,99739.02
2018-11-26T12:37:41.238Z,99735.94
2018-11-26T12:42:45.545Z,99737.78
2018-11-26T12:47:49.889Z,99736.25
2018-11-26T12:52:54.631Z,99743.89
2018-11-26T12:57:59.293Z,99730.24
2018-11-26T13:03:06.220Z,99735.48
2018-11-26T13:08:10.786Z,99734.94
2018-11-26T13:13:15.236Z,99736.22
2018-11-26T13:18:19.670Z,99729.41
2018-11-26T13:23:24.205Z,99737.34
2018-11-26T13:28:29.232Z,99737.58
2018-11-26T13:33:34.274Z,99744.14
2018-11-26T13:38:39.297Z,99743.38
2018-11-26T13:43:44.903Z,99743.91
2018-11-26T13:48:49.534Z,99744.95
2018-11-26T13:53:54.696Z,99747.05
2018-11-26T13:58:59.469Z,99744.14
2018-11-26T14:04:04.661Z,99746.03
2018-11-26T14:09:10.252Z,99753.62
2018-11-26T14:14:15.639Z,99761.48
2018-11-26T14:19:20.496Z,99748.08
2018-11-26T14:24:24.776Z,99752.31
2018-11-26T14:29:29.523Z,99753.86
2018-11-26T14:34:33.833Z,99755.47
2018-11-26T14:39:38.258Z,99758.61
2018-11-26T14:44:42.997Z,99761.73
2018-11-26T14:49:48.189Z,99764.17
2018-11-26T14:55:02.463Z,99769.72
2018-11-26T15:05:52.892Z,99784.41
2018-11-26T15:11:11.937Z,99781.77
2018-11-26T15:16:21.431Z,99787.55
2018-11-26T15:21:27.526Z,99783.05
2018-11-26T15:26:32.020Z,99792.54
2018-11-26T15:31:36.788Z,99791.27
2018-11-26T15:36:43.985Z,99797.85
2018-11-26T15:41:49.029Z,99797.56
2018-11-26T15:46:53.665Z,99801.54
2018-11-26T15:51:58.198Z,99802.32
2018-11-26T15:57:02.797Z,99804.41
2018-11-26T16:02:07.956Z,99804.39
2018-11-26T16:07:18.234Z,99812.55
2018-11-26T16:12:23.286Z,99819.34
2018-11-26T16:17:27.860Z,99824.57
2018-11-26T16:22:32.213Z,99826.80
2018-11-26T16:27:36.542Z,99834.08
2018-11-26T16:32:41.231Z,99837.30
2018-11-26T16:37:45.812Z,99843.88
2018-11-26T16:42:50.202Z,99854.38
2018-11-26T16:47:59.900Z,99849.94
2018-11-26T16:53:04.600Z,99844.40
2018-11-26T16:58:09.240Z,99858.30
2018-11-26T17:03:14.460Z,99859.38
2018-11-26T17:08:19.082Z,99861.87
2018-11-26T17:13:24.081Z,99872.83
2018-11-26T17:18:33.832Z,99878.55
2018-11-26T17:23:38.944Z,99887.04
2018-11-26T17:28:43.400Z,99885.38
2018-11-26T17:33:48.056Z,99890.09
2018-11-26T17:38:52.685Z,99884.01
2018-11-26T17:43:57.400Z,99897.10
2018-11-26T17:49:02.522Z,99900.55
2018-11-26T17:54:06.954Z,99908.70
2018-11-26T17:59:11.881Z,99918.47
2018-11-26T18:04:16.607Z,99910.80
2018-11-26T18:09:22.894Z,99917.63
2018-11-26T18:14:26.205Z,99922.81
2018-11-26T18:19:30.764Z,99926.78
2018-11-26T18:24:35.849Z,99938.36
2018-11-26T18:29:58.822Z,99936.48
2018-11-26T18:35:04.732Z,99941.66
2018-11-26T18:40:14.035Z,99946.41
2018-11-26T18:45:19.054Z,99946.91
2018-11-26T18:50:23.424Z,99953.20
2018-11-26T18:55:27.962Z,99950.83
2018-11-26T19:00:34.840Z,99949.85
2018-11-26T19:05:39.238Z,99954.23
2018-11-26T19:10:43.804Z,99959.99
2018-11-26T19:15:50.107Z,99960.49
2018-11-26T19:20:55.673Z,99970.06
2018-11-26T19:26:04.983Z,99964.75
2018-11-26T19:31:09.845Z,99977.98
2018-11-26T19:36:28.012Z,99976.64
2018-11-26T19:41:32.938Z,99972.13
2018-11-26T19:46:37.461Z,99977.89
2018-11-26T19:51:42.378Z,99981.58
2018-11-26T19:56:47.157Z,99982.05
2018-11-26T20:01:51.674Z,99990.91
2018-11-26T20:06:56.151Z,100001.28
2018-11-26T20:12:00.644Z,100008.95
2018-11-26T20:17:11.155Z,100009.23
2018-11-26T20:22:16.438Z,100011.39
2018-11-26T20:27:21.848Z,100016.20
2018-11-26T20:32:30.260Z,100012.54
2018-11-26T20:42:53.819Z,100028.52
2018-11-26T20:47:58.723Z,100035.87
2018-11-26T20:53:03.569Z,100035.83
2018-11-26T20:58:21.495Z,100038.39
2018-11-26T21:03:30.388Z,100041.58
2018-11-26T21:08:36.181Z,100047.58
2018-11-26T21:13:40.938Z,100042.25
2018-11-26T21:18:45.965Z,100044.95
2018-11-26T21:23:51.845Z,100042.19
2018-11-26T21:28:56.528Z,100053.37
2018-11-26T21:34:01.383Z,100049.67
2018-11-26T21:39:11.548Z,100056.20
2018-11-26T21:44:15.884Z,100053.33
2018-11-26T21:49:21.761Z,100054.77
2018-11-26T21:54:26.366Z,100064.67
2018-11-26T21:59:31.299Z,100068.44
2018-11-26T22:04:36.929Z,100078.16
2018-11-26T22:09:41.829Z,100075.54
2018-11-26T22:14:46.431Z,100081.45
2018-11-26T22:19:51.228Z,100085.84
2018-11-26T22:24:55.779Z,100096.63
2018-11-26T22:30:13.422Z,100104.51
2018-11-26T22:35:18.195Z,100107.09
2018-11-26T22:40:27.812Z,100112.11
2018-11-26T22:45:33.239Z,100116.70
2018-11-26T22:50:40.120Z,100119.70
2018-11-26T22:55:47.487Z,100118.67
2018-11-26T23:00:54.644Z,100121.78
2018-11-26T23:06:00.821Z,100122.03
2018-11-26T23:11:05.725Z,100124.95
2018-11-26T23:16:10.363Z,100125.39
2018-11-26T23:21:15.377Z,100137.95
2018-11-26T23:26:20.097Z,100135.11
2018-11-26T23:31:24.551Z,100137.98
2018-11-26T23:36:34.056Z,100138.56
2018-11-26T23:41:38.462Z,100142.13
2018-11-26T23:46:43.138Z,100146.35
2018-11-26T23:51:48.055Z,100142.13
2018-11-26T23:57:02.133Z,100149.31
